Time;durP1;ratioP1;P1;durP2;ratioP2;P2;SDS_P1;SDS_P2;PMS_P1;PMS_P2;Temp;Humidity;BMP_temperature;BMP_pressure;BME280_temperature;BME280_humidity;BME280_pressure;Samples;Min_cycle;Max_cycle;Signal;HPM_P1;HPM_P2
2022/03/12 00:01:47;;;;;;;25.80;11.25;;;24.50;71.10;;;;;;6272729;22;20007;-76
2022/03/12 00:04:14;;;;;;;20.55;9.70;;;24.50;71.20;;;;;;6274295;22;20008;-74
2022/03/12 00:06:41;;;;;;;13.23;9.48;;;24.40;71.10;;;;;;6273425;22;20083;-74
2022/03/12 00:09:09;;;;;;;17.95;10.40;;;24.40;71.00;;;;;;6246734;22;19996;-75
2022/03/12 00:11:50;;;;;;;24.85;12.65;;;24.40;71.00;;;;;;6247289;22;20031;-76
2022/03/12 00:14:21;;;;;;;20.33;13.68;;;24.40;71.10;;;;;;6272868;22;20027;-78
2022/03/12 00:16:51;;;;;;;20.95;13.30;;;24.40;71.10;;;;;;6273922;22;20003;-74
2022/03/12 00:19:20;;;;;;;20.48;13.68;;;24.40;71.30;;;;;;6272999;22;20315;-75
2022/03/12 00:21:48;;;;;;;23.70;15.25;;;24.40;71.30;;;;;;6273902;22;20011;-77
2022/03/12 00:24:17;;;;;;;24.92;16.17;;;24.40;71.40;;;;;;6273949;22;20019;-75
2022/03/12 00:26:49;;;;;;;20.98;14.13;;;24.40;71.30;;;;;;6273165;22;20023;-75
2022/03/12 00:29:16;;;;;;;23.73;15.88;;;24.30;71.30;;;;;;6273618;22;20435;-76
2022/03/12 00:31:45;;;;;;;23.13;15.43;;;24.30;71.30;;;;;;6245207;22;20008;-75
2022/03/12 00:34:13;;;;;;;25.00;16.38;;;24.30;71.30;;;;;;6274259;22;20010;-75
2022/03/12 00:36:39;;;;;;;39.72;16.25;;;24.30;71.40;;;;;;6273114;22;20027;-74
2022/03/12 00:39:09;;;;;;;26.33;16.92;;;24.30;71.60;;;;;;6273925;22;20010;-75
2022/03/12 00:41:42;;;;;;;26.52;16.27;;;24.30;72.00;;;;;;6273639;22;20010;-76
2022/03/12 00:44:12;;;;;;;24.10;15.57;;;24.30;71.80;;;;;;6272026;22;20124;-73
2022/03/12 00:46:39;;;;;;;22.88;14.90;;;24.30;71.70;;;;;;6273722;22;20008;-75
2022/03/12 00:49:05;;;;;;;23.42;15.80;;;24.30;71.70;;;;;;6244815;22;20035;-75
2022/03/12 00:51:32;;;;;;;37.70;16.55;;;24.30;71.70;;;;;;6272898;22;20011;-75
2022/03/12 00:53:58;;;;;;;27.20;14.30;;;24.30;71.60;;;;;;6272575;22;20069;-76
2022/03/12 00:56:26;;;;;;;27.83;15.32;;;24.20;72.00;;;;;;6273440;22;20004;-76
2022/03/12 00:58:53;;;;;;;49.95;16.50;;;24.20;72.00;;;;;;6272981;22;20043;-76
2022/03/12 01:01:19;;;;;;;26.95;12.90;;;24.20;72.00;;;;;;6245317;22;20003;-76
2022/03/12 01:03:46;;;;;;;27.85;12.23;;;24.20;71.90;;;;;;6272961;22;20046;-75
2022/03/12 01:06:14;;;;;;;21.00;12.40;;;24.20;71.80;;;;;;6272478;22;20006;-78
2022/03/12 01:08:42;;;;;;;27.65;12.48;;;24.20;71.60;;;;;;6273803;22;20003;-77
2022/03/12 01:11:10;;;;;;;15.05;10.88;;;24.20;71.60;;;;;;6272417;22;20335;-77
2022/03/12 01:13:37;;;;;;;16.48;11.52;;;24.20;71.60;;;;;;6273238;22;20004;-74
2022/03/12 01:16:06;;;;;;;16.30;11.60;;;24.10;71.60;;;;;;6271436;22;20354;-77
2022/03/12 01:18:37;;;;;;;33.25;12.10;;;24.10;71.60;;;;;;6271519;22;20000;-77
2022/03/12 01:21:17;;;;;;;32.00;11.18;;;24.10;71.80;;;;;;6273080;22;20331;-77
2022/03/12 01:23:48;;;;;;;21.58;10.77;;;24.10;71.80;;;;;;6272010;22;20043;-75
2022/03/12 01:26:15;;;;;;;18.20;10.13;;;24.10;71.70;;;;;;6273373;22;20007;-79
2022/03/12 01:28:42;;;;;;;21.13;10.65;;;24.10;71.60;;;;;;6272142;22;20015;-77
2022/03/12 01:31:09;;;;;;;10.18;9.13;;;24.10;71.60;;;;;;6245990;22;20008;-78
2022/03/12 01:33:35;;;;;;;22.73;10.55;;;24.10;71.50;;;;;;6273541;22;20007;-76
2022/03/12 01:36:02;;;;;;;22.27;10.85;;;24.10;71.40;;;;;;6245241;22;20011;-76
2022/03/12 01:38:53;;;;;;;17.15;9.50;;;24.10;71.40;;;;;;6245982;22;20006;-75
2022/03/12 01:41:22;;;;;;;39.30;8.90;;;24.00;71.40;;;;;;6271925;22;20014;-78
2022/03/12 01:43:49;;;;;;;24.13;8.32;;;24.00;71.60;;;;;;6245892;22;20011;-76
2022/03/12 01:46:18;;;;;;;10.05;7.22;;;24.00;71.60;;;;;;6245086;22;20019;-75
2022/03/12 01:48:49;;;;;;;19.38;8.40;;;24.00;71.50;;;;;;6272961;22;20379;-79
2022/03/12 01:51:16;;;;;;;15.38;6.88;;;24.00;71.40;;;;;;6246018;22;20019;-76
2022/03/12 01:53:43;;;;;;;14.95;6.90;;;24.00;71.20;;;;;;6271829;22;19996;-76
2022/03/12 01:56:10;;;;;;;12.77;7.25;;;24.00;71.30;;;;;;6273364;22;20006;-77
2022/03/12 01:58:44;;;;;;;10.27;6.53;;;24.00;71.20;;;;;;6271860;22;20003;-75
2022/03/12 02:01:13;;;;;;;25.58;8.10;;;24.00;71.10;;;;;;6274350;22;20027;-75
2022/03/12 02:03:44;;;;;;;17.30;6.82;;;24.00;71.10;;;;;;6274500;22;20054;-73
2022/03/12 02:06:21;;;;;;;23.15;7.03;;;24.00;71.10;;;;;;6274766;22;20030;-74
2022/03/12 02:08:49;;;;;;;10.40;5.63;;;23.90;71.00;;;;;;6222425;22;20073;-75
2022/03/12 02:11:25;;;;;;;13.45;6.18;;;23.90;71.00;;;;;;6272514;22;20006;-80
2022/03/12 02:13:59;;;;;;;19.33;6.55;;;23.90;71.00;;;;;;6273524;22;20431;-76
2022/03/12 02:16:27;;;;;;;9.18;5.22;;;23.90;71.20;;;;;;6271696;22;20014;-76
2022/03/12 02:18:53;;;;;;;13.55;5.63;;;23.90;71.40;;;;;;6273088;22;19999;-78
2022/03/12 02:21:34;;;;;;;11.20;6.20;;;23.90;71.50;;;;;;6272778;22;20004;-74
2022/03/12 02:24:09;;;;;;;10.20;5.72;;;23.80;71.50;;;;;;6272038;22;20019;-75
2022/03/12 02:26:36;;;;;;;;;;;23.80;71.50;;;;;;6273761;22;20008;-75
2022/03/12 02:29:09;;;;;;;67.60;9.57;;;23.80;71.50;;;;;;6239204;23;19911;-74
2022/03/12 02:31:40;;;;;;;26.70;9.20;;;23.80;71.90;;;;;;6244285;22;20340;-74
2022/03/12 02:34:10;;;;;;;18.33;8.05;;;23.80;72.10;;;;;;6242633;23;20004;-75
2022/03/12 02:36:39;;;;;;;11.13;7.05;;;23.80;72.10;;;;;;6244005;22;20401;-73
2022/03/12 02:39:07;;;;;;;12.55;6.45;;;23.80;72.00;;;;;;6244417;22;20058;-76
2022/03/12 02:41:34;;;;;;;10.20;6.07;;;23.80;72.00;;;;;;6241594;23;20083;-75
2022/03/12 02:44:01;;;;;;;6.93;6.10;;;23.80;72.00;;;;;;6244387;22;20055;-75
2022/03/12 02:46:32;;;;;;;18.25;6.22;;;23.80;72.10;;;;;;6240913;23;20000;-72
2022/03/12 02:48:59;;;;;;;14.93;6.15;;;23.80;72.10;;;;;;6244445;22;20004;-73
2022/03/12 02:51:26;;;;;;;9.00;5.50;;;23.70;71.80;;;;;;6243462;22;19996;-72
2022/03/12 02:53:56;;;;;;;13.30;6.45;;;23.80;71.70;;;;;;6243992;22;20004;-75
2022/03/12 02:56:24;;;;;;;9.75;5.72;;;23.70;71.60;;;;;;6244187;22;19996;-74
2022/03/12 02:58:52;;;;;;;17.13;7.05;;;23.70;71.50;;;;;;6243043;22;20076;-74
2022/03/12 03:01:19;;;;;;;28.95;7.80;;;23.70;71.40;;;;;;6242509;23;20004;-78
2022/03/12 03:03:47;;;;;;;14.45;6.20;;;23.70;71.60;;;;;;6242983;22;20103;-77
2022/03/12 03:06:15;;;;;;;21.27;9.45;;;23.70;71.80;;;;;;6242031;23;20000;-77
2022/03/12 03:08:44;;;;;;;24.05;11.38;;;23.70;71.80;;;;;;6242775;22;20069;-78
2022/03/12 03:11:17;;;;;;;15.20;9.15;;;23.70;71.90;;;;;;6244260;23;20032;-74
2022/03/12 03:13:46;;;;;;;16.33;6.35;;;23.70;71.90;;;;;;6244226;22;20001;-74
2022/03/12 03:16:21;;;;;;;14.95;6.85;;;23.80;72.20;;;;;;6243035;22;20111;-74
2022/03/12 03:18:53;;;;;;;14.40;7.25;;;23.70;72.30;;;;;;6244456;22;20328;-75
2022/03/12 03:21:24;;;;;;;12.23;6.65;;;23.60;73.10;;;;;;6241280;23;20004;-75
2022/03/12 03:23:53;;;;;;;11.05;6.57;;;23.60;73.20;;;;;;6243154;22;20012;-76
2022/03/12 03:26:40;;;;;;;13.40;6.88;;;23.60;73.20;;;;;;6238222;23;20012;-79
2022/03/12 03:29:09;;;;;;;13.88;6.72;;;23.60;73.20;;;;;;6265662;22;20035;-76
2022/03/12 03:31:38;;;;;;;13.27;6.47;;;23.60;73.10;;;;;;6246712;22;20007;-76
2022/03/12 03:34:04;;;;;;;57.42;9.43;;;23.60;72.90;;;;;;6245907;22;20007;-75
2022/03/12 03:36:31;;;;;;;74.32;8.98;;;23.60;73.00;;;;;;6273210;22;20030;-77
2022/03/12 03:38:58;;;;;;;18.52;7.03;;;23.60;73.20;;;;;;6272506;22;19996;-77
2022/03/12 03:41:25;;;;;;;16.17;7.57;;;23.60;73.10;;;;;;6273828;22;20516;-78
2022/03/12 03:43:52;;;;;;;21.08;10.77;;;23.60;73.00;;;;;;6272905;22;20007;-78
2022/03/12 03:46:21;;;;;;;22.83;13.65;;;23.60;73.00;;;;;;6272722;22;19991;-76
2022/03/12 03:48:49;;;;;;;21.50;13.30;;;23.50;73.10;;;;;;6273751;22;20003;-77
2022/03/12 03:51:23;;;;;;;18.23;10.57;;;23.60;73.20;;;;;;6272638;22;20308;-78
2022/03/12 03:53:51;;;;;;;23.10;9.82;;;23.60;73.20;;;;;;6273659;22;20003;-75
2022/03/12 03:56:18;;;;;;;12.77;8.40;;;23.60;73.20;;;;;;6244862;22;20003;-77
2022/03/12 03:58:47;;;;;;;12.07;7.20;;;23.60;73.10;;;;;;6273529;22;19995;-77
2022/03/12 04:01:18;;;;;;;18.33;9.07;;;23.50;73.10;;;;;;6246366;22;20000;-76
2022/03/12 04:03:48;;;;;;;15.38;8.18;;;23.50;73.00;;;;;;6271935;22;20042;-78
2022/03/12 06:28:06;;;;;;;2.75;2.55;;;23.40;79.50;;;;;;4979270;27;3641544;-74
2022/03/12 06:30:32;;;;;;;7.63;2.70;;;23.80;78.60;;;;;;5068348;28;20291;-75
2022/03/12 06:32:59;;;;;;;12.98;2.47;;;23.80;78.40;;;;;;5069088;28;20086;-69
2022/03/12 06:35:27;;;;;;;4.07;2.30;;;23.90;78.20;;;;;;5068645;28;20029;-69
2022/03/12 06:37:55;;;;;;;5.78;2.17;;;24.00;78.20;;;;;;5065473;28;20033;-69
2022/03/12 06:40:22;;;;;;;3.33;1.85;;;24.10;78.10;;;;;;5069221;28;20024;-70
2022/03/12 06:42:51;;;;;;;4.20;2.05;;;24.10;77.90;;;;;;5067866;28;20020;-71
2022/03/12 06:45:17;;;;;;;5.10;4.35;;;24.20;78.00;;;;;;5066262;28;20029;-77
2022/03/12 06:47:46;;;;;;;4.00;3.60;;;24.30;78.00;;;;;;5069072;28;20052;-70
2022/03/12 06:50:17;;;;;;;9.18;2.67;;;24.30;78.00;;;;;;5068176;28;20025;-72
2022/03/12 06:52:47;;;;;;;5.95;2.30;;;24.40;78.00;;;;;;5068587;28;20053;-71
2022/03/12 07:05:20;;;;;;;12.43;4.00;;;24.70;76.90;;;;;;5067975;28;20067;-68
2022/03/12 07:07:50;;;;;;;10.85;3.63;;;24.80;75.80;;;;;;5075120;28;20048;-69
2022/03/12 07:10:17;;;;;;;16.95;3.83;;;24.80;75.00;;;;;;5075473;28;20066;-71
2022/03/12 07:12:45;;;;;;;8.38;3.15;;;24.80;74.40;;;;;;5079083;28;20025;-69
2022/03/12 07:15:16;;;;;;;9.00;3.35;;;24.80;74.10;;;;;;5080913;28;20028;-68
2022/03/12 07:17:43;;;;;;;10.73;2.92;;;24.80;73.70;;;;;;5082664;28;20471;-68
2022/03/12 07:20:14;;;;;;;8.52;2.80;;;24.80;73.30;;;;;;5075665;28;20499;-73
2022/03/12 07:22:41;;;;;;;9.90;4.18;;;24.80;73.00;;;;;;5077084;28;20028;-68
2022/03/12 07:25:12;;;;;;;8.40;4.88;;;24.80;72.80;;;;;;5077124;28;20025;-68
2022/03/12 07:27:39;;;;;;;12.57;6.15;;;24.90;73.50;;;;;;5062831;28;20041;-66
2022/03/12 07:30:08;;;;;;;13.90;6.15;;;24.90;73.00;;;;;;5058325;28;20028;-67
2022/03/12 07:32:35;;;;;;;16.58;4.85;;;24.90;73.20;;;;;;5068767;28;20422;-67
2022/03/12 07:35:03;;;;;;;14.98;4.25;;;24.90;73.20;;;;;;5059445;28;20210;-67
2022/03/12 07:37:29;;;;;;;12.93;4.93;;;24.90;73.50;;;;;;5060243;28;20024;-69
2022/03/12 07:39:56;;;;;;;6.88;3.58;;;25.00;73.70;;;;;;5071487;28;20029;-72
2022/03/12 07:42:22;;;;;;;6.55;3.45;;;25.00;74.10;;;;;;5057202;28;20029;-67
2022/03/12 07:44:49;;;;;;;10.77;3.25;;;25.00;73.90;;;;;;5063807;28;20029;-67
2022/03/12 07:47:55;;;;;;;10.63;3.80;;;25.00;73.90;;;;;;5063924;28;20027;-70
2022/03/12 07:51:01;;;;;;;14.45;4.65;;;25.10;74.60;;;;;;5063805;28;20017;-74
2022/03/12 07:53:28;;;;;;;;;;;25.20;73.90;;;;;;5061597;28;20025;-73
2022/03/12 07:55:54;;;;;;;14.40;4.60;;;25.20;73.70;;;;;;5066450;28;20390;-69
2022/03/12 07:58:21;;;;;;;13.82;3.72;;;25.20;73.50;;;;;;5059848;28;20031;-71
2022/03/12 08:00:47;;;;;;;18.90;5.15;;;25.20;73.30;;;;;;5059672;28;20538;-70
2022/03/12 08:03:14;;;;;;;18.55;4.07;;;25.30;73.20;;;;;;5065706;28;20518;-70
2022/03/12 08:05:41;;;;;;;13.05;4.30;;;25.30;73.10;;;;;;5068487;28;20028;-70
2022/03/12 08:08:07;;;;;;;16.10;3.88;;;25.30;73.00;;;;;;5063536;28;20016;-70
2022/03/12 08:11:24;;;;;;;8.93;3.88;;;25.30;73.00;;;;;;5068004;28;20081;-70
2022/03/12 08:13:21;;;;;;;8.52;3.03;;;25.40;73.00;;;;;;5061502;28;20028;-71
2022/03/12 08:15:49;;;;;;;10.57;3.35;;;25.40;73.00;;;;;;5065752;28;20037;-70
2022/03/12 08:18:16;;;;;;;8.05;3.25;;;25.50;72.70;;;;;;5055381;28;20025;-70
2022/03/12 08:20:44;;;;;;;6.97;3.67;;;25.50;73.40;;;;;;5048453;28;20119;-71
2022/03/12 08:23:11;;;;;;;10.18;3.30;;;25.50;72.90;;;;;;5067791;28;20062;-71
2022/03/12 08:25:38;;;;;;;12.00;3.33;;;25.60;72.80;;;;;;5061224;28;20021;-70
2022/03/12 08:28:05;;;;;;;10.98;3.80;;;25.60;72.70;;;;;;5059831;28;20036;-70
2022/03/12 08:30:31;;;;;;;10.65;3.58;;;25.60;72.60;;;;;;5061711;28;20024;-70
2022/03/12 08:32:58;;;;;;;10.18;4.07;;;25.70;72.70;;;;;;5059412;28;20056;-69
2022/03/12 08:35:24;;;;;;;10.43;4.40;;;25.80;72.60;;;;;;5060506;28;20087;-69
2022/03/12 08:37:51;;;;;;;10.50;3.45;;;25.80;72.40;;;;;;5065716;28;20023;-71
2022/03/12 08:40:18;;;;;;;9.23;3.45;;;25.80;72.10;;;;;;5053874;28;20017;-68
2022/03/12 08:42:45;;;;;;;14.23;3.70;;;25.80;71.90;;;;;;5066572;28;20024;-68
2022/03/12 08:45:15;;;;;;;13.10;3.50;;;25.90;71.90;;;;;;5063688;28;20031;-69
2022/03/12 08:47:43;;;;;;;7.93;2.95;;;25.90;71.60;;;;;;5056859;28;20044;-69
2022/03/12 08:50:09;;;;;;;11.88;4.53;;;26.00;71.50;;;;;;5063553;28;20090;-70
2022/03/12 08:52:38;;;;;;;18.75;6.00;;;26.00;71.30;;;;;;5049778;28;20086;-69
2022/03/12 08:55:06;;;;;;;14.60;4.90;;;26.10;71.20;;;;;;5062441;28;20016;-70
2022/03/12 08:57:32;;;;;;;16.05;4.47;;;26.10;71.00;;;;;;5067406;28;20016;-69
2022/03/12 08:59:59;;;;;;;6.28;3.60;;;26.10;70.60;;;;;;5061257;28;20427;-69
2022/03/12 09:02:28;;;;;;;9.10;3.33;;;26.20;70.30;;;;;;5058268;28;20035;-70
2022/03/12 09:04:54;;;;;;;8.45;2.80;;;26.20;70.60;;;;;;5043818;28;20016;-70
2022/03/12 09:07:23;;;;;;;10.18;4.10;;;26.20;69.40;;;;;;5064311;28;20063;-70
2022/03/12 09:09:51;;;;;;;15.48;3.78;;;26.20;69.10;;;;;;5064253;28;20017;-70
2022/03/12 09:12:17;;;;;;;8.27;4.05;;;26.20;69.10;;;;;;5068049;28;20055;-71
2022/03/12 09:14:44;;;;;;;12.02;4.63;;;26.20;69.10;;;;;;5054327;28;20024;-69
2022/03/12 09:17:10;;;;;;;11.52;3.53;;;26.10;68.50;;;;;;5064470;28;20063;-69
2022/03/12 09:19:37;;;;;;;6.45;3.90;;;26.10;67.80;;;;;;5062226;28;20063;-70
2022/03/12 09:22:04;;;;;;;25.25;5.70;;;26.10;67.80;;;;;;5057419;28;20078;-70
2022/03/12 09:24:31;;;;;;;14.15;4.32;;;26.10;67.90;;;;;;5058523;28;20064;-70
2022/03/12 09:26:59;;;;;;;10.98;4.63;;;26.10;68.20;;;;;;5061302;28;20017;-68
2022/03/12 09:29:26;;;;;;;11.10;2.97;;;26.20;68.20;;;;;;5057697;28;20067;-70
2022/03/12 09:31:53;;;;;;;8.20;3.60;;;26.20;68.10;;;;;;5058569;28;20025;-69
2022/03/12 09:34:20;;;;;;;12.32;4.72;;;26.20;67.50;;;;;;5071446;28;20032;-69
2022/03/12 09:36:46;;;;;;;20.50;5.80;;;26.20;67.70;;;;;;5065743;28;20112;-69
2022/03/12 09:39:13;;;;;;;32.60;4.50;;;26.20;67.70;;;;;;5054257;28;20025;-72
2022/03/12 09:41:40;;;;;;;12.65;3.83;;;26.20;68.00;;;;;;5053281;28;20511;-72
2022/03/12 09:44:08;;;;;;;13.18;4.28;;;26.30;68.30;;;;;;5056361;28;20497;-72
2022/03/12 09:46:34;;;;;;;8.73;3.78;;;26.30;68.50;;;;;;5063459;28;20048;-71
2022/03/12 09:49:01;;;;;;;7.18;3.80;;;26.30;68.60;;;;;;5060553;28;20517;-68
2022/03/12 09:51:29;;;;;;;10.60;4.10;;;26.40;68.80;;;;;;5057744;28;20032;-71
2022/03/12 09:54:01;;;;;;;12.95;4.10;;;26.30;68.80;;;;;;5064017;28;20108;-70
2022/03/12 09:56:28;;;;;;;12.13;5.00;;;26.30;68.90;;;;;;5062772;28;20032;-71
2022/03/12 09:58:54;;;;;;;9.95;5.35;;;26.30;69.10;;;;;;5065839;28;20033;-71
2022/03/12 10:01:21;;;;;;;6.28;4.05;;;26.30;68.80;;;;;;5061712;28;20539;-70
2022/03/12 10:03:47;;;;;;;11.35;4.10;;;26.20;68.40;;;;;;5062310;28;20509;-72
2022/03/12 10:06:16;;;;;;;6.03;3.75;;;26.20;67.60;;;;;;5067121;28;20020;-71
2022/03/12 10:08:46;;;;;;;14.82;3.60;;;26.10;67.10;;;;;;5061012;28;20488;-70
2022/03/12 10:11:13;;;;;;;30.40;4.70;;;26.10;66.80;;;;;;5060273;28;20036;-70
2022/03/12 10:13:40;;;;;;;9.48;3.13;;;26.00;66.60;;;;;;5063668;28;20104;-71
2022/03/12 10:16:07;;;;;;;5.40;3.13;;;25.90;66.00;;;;;;5058866;28;20380;-70
2022/03/12 10:18:35;;;;;;;5.47;2.97;;;25.90;65.60;;;;;;5055466;28;20017;-71
2022/03/12 10:21:03;;;;;;;5.75;3.05;;;25.80;65.60;;;;;;5063127;28;20031;-70
2022/03/12 10:23:29;;;;;;;3.85;3.03;;;25.70;65.30;;;;;;5057920;28;20483;-71
2022/03/12 10:25:56;;;;;;;5.15;3.40;;;25.70;65.40;;;;;;5058248;28;20036;-70
2022/03/12 10:28:22;;;;;;;6.68;3.22;;;25.60;65.20;;;;;;5057009;28;20132;-71
2022/03/12 10:30:49;;;;;;;4.13;3.38;;;25.60;65.30;;;;;;5062903;28;20025;-70
2022/03/12 10:33:25;;;;;;;6.03;3.72;;;25.50;65.40;;;;;;5067633;28;20078;-70
2022/03/12 10:35:52;;;;;;;5.25;2.90;;;25.50;65.40;;;;;;5061221;28;20033;-71
2022/03/12 10:38:22;;;;;;;5.57;3.75;;;25.50;65.50;;;;;;5067154;28;20082;-71
2022/03/12 10:40:48;;;;;;;4.95;3.55;;;25.50;65.60;;;;;;5059679;28;20056;-70
2022/03/12 10:43:15;;;;;;;6.85;3.20;;;25.40;65.60;;;;;;5056737;28;20383;-70
2022/03/12 10:45:45;;;;;;;7.10;3.00;;;25.40;65.60;;;;;;5065308;28;20092;-71
2022/03/12 10:48:12;;;;;;;16.45;3.90;;;25.40;65.80;;;;;;5058260;28;20023;-70
2022/03/12 10:50:44;;;;;;;10.63;3.90;;;25.40;66.10;;;;;;5058472;28;20033;-70
2022/03/12 10:53:13;;;;;;;3.75;2.60;;;25.40;66.10;;;;;;5063880;28;20009;-70
2022/03/12 10:55:43;;;;;;;5.65;3.08;;;25.50;66.10;;;;;;5061083;28;20032;-70
2022/03/12 10:58:17;;;;;;;5.68;3.30;;;25.50;66.10;;;;;;5062057;28;20411;-71
2022/03/12 11:00:48;;;;;;;9.05;3.20;;;25.50;66.10;;;;;;5059558;28;20574;-71
2022/03/12 11:03:17;;;;;;;11.07;3.08;;;25.50;66.10;;;;;;5051263;28;20033;-71
2022/03/12 11:05:44;;;;;;;5.10;2.35;;;25.50;66.00;;;;;;5060657;28;20448;-71
2022/03/12 11:08:17;;;;;;;4.53;2.38;;;25.50;65.60;;;;;;5065605;28;20021;-74
2022/03/12 11:10:50;;;;;;;2.95;2.65;;;25.50;65.50;;;;;;5062283;28;20021;-70
2022/03/12 11:13:40;;;;;;;3.40;2.42;;;25.50;65.50;;;;;;5060919;28;20025;-71
2022/03/12 11:16:14;;;;;;;10.25;2.53;;;25.50;65.10;;;;;;5061841;28;20028;-70
2022/03/12 11:19:07;;;;;;;9.50;3.15;;;25.50;64.80;;;;;;5069237;28;20420;-70
2022/03/12 11:21:43;;;;;;;5.05;2.70;;;25.50;65.10;;;;;;5059720;28;20029;-70
2022/03/12 11:24:17;;;;;;;6.57;2.10;;;25.60;65.40;;;;;;5065835;28;20482;-71
2022/03/12 11:26:49;;;;;;;3.00;2.70;;;25.60;65.30;;;;;;5059977;28;20090;-71
2022/03/12 11:29:18;;;;;;;14.02;3.67;;;25.60;65.10;;;;;;5060996;28;20403;-71
2022/03/12 11:31:51;;;;;;;4.50;2.83;;;25.70;65.00;;;;;;5064636;28;20443;-70
2022/03/12 11:34:34;;;;;;;4.63;2.15;;;25.70;64.90;;;;;;5062445;28;20491;-71
2022/03/12 11:37:06;;;;;;;4.18;2.25;;;25.80;64.80;;;;;;5069807;28;20145;-71
2022/03/12 11:39:39;;;;;;;5.65;2.50;;;25.80;64.50;;;;;;5071632;28;20108;-71
2022/03/12 11:42:11;;;;;;;2.97;2.67;;;25.80;64.40;;;;;;5064362;28;20033;-70
2022/03/12 11:44:49;;;;;;;3.83;2.40;;;25.90;64.50;;;;;;5055145;28;20108;-70
2022/03/12 11:47:21;;;;;;;6.90;2.60;;;26.00;64.30;;;;;;5063967;28;20036;-70
2022/03/12 11:49:49;;;;;;;4.20;2.78;;;26.00;64.00;;;;;;5063693;28;20017;-70
2022/03/12 11:52:16;;;;;;;6.30;2.83;;;26.00;63.90;;;;;;5066972;28;20013;-69
2022/03/12 11:54:45;;;;;;;7.32;2.78;;;26.10;63.70;;;;;;5067078;28;20045;-71
2022/03/12 11:57:30;;;;;;;11.10;2.47;;;26.10;63.50;;;;;;5061031;28;20419;-71
2022/03/12 11:59:58;;;;;;;3.58;2.58;;;26.20;63.30;;;;;;5059603;28;20021;-70
2022/03/12 12:02:34;;;;;;;4.40;2.72;;;26.30;63.20;;;;;;5054436;28;20013;-69
2022/03/12 12:05:12;;;;;;;6.25;3.45;;;26.30;62.80;;;;;;5044398;28;20025;-70
2022/03/12 12:07:45;;;;;;;7.85;3.63;;;26.40;62.60;;;;;;5063118;28;20032;-70
2022/03/12 12:10:20;;;;;;;5.75;3.42;;;26.40;62.50;;;;;;5068596;28;20388;-70
2022/03/12 12:12:52;;;;;;;3.30;2.65;;;26.40;62.50;;;;;;5056451;28;20111;-70
2022/03/12 14:33:36;;;;;;;12.02;4.03;;;26.90;69.60;;;;;;5081040;27;20428;-72
2022/03/12 14:36:04;;;;;;;20.17;4.57;;;27.30;69.00;;;;;;5086037;28;20182;-69
2022/03/12 14:38:31;;;;;;;12.10;3.85;;;27.30;68.90;;;;;;5075753;28;20012;-71
2022/03/12 14:40:57;;;;;;;9.85;3.53;;;27.30;69.00;;;;;;5078291;28;20055;-68
2022/03/12 14:43:25;;;;;;;15.88;4.85;;;27.40;69.10;;;;;;5074358;28;20031;-68
2022/03/12 14:45:51;;;;;;;13.82;5.07;;;27.40;68.50;;;;;;5080659;28;20015;-68
2022/03/12 14:48:19;;;;;;;19.02;4.85;;;27.40;68.20;;;;;;5076623;28;20398;-68
2022/03/12 14:50:46;;;;;;;17.83;4.13;;;27.40;68.70;;;;;;5074614;28;20086;-71
2022/03/12 14:53:16;;;;;;;37.63;5.10;;;27.40;68.90;;;;;;5070406;28;20017;-69
2022/03/12 14:55:45;;;;;;;85.38;71.30;;;27.30;69.60;;;;;;5073879;28;20028;-68
2022/03/12 14:58:12;;;;;;;63.78;39.85;;;27.40;70.10;;;;;;5075336;28;20094;-68
2022/03/12 15:00:41;;;;;;;18.33;6.47;;;27.40;69.70;;;;;;5072801;28;20025;-69
2022/03/12 15:03:10;;;;;;;8.88;3.10;;;27.30;69.40;;;;;;5074991;28;20021;-70
2022/03/12 15:05:38;;;;;;;13.75;3.55;;;27.30;69.30;;;;;;5068832;28;20055;-68
2022/03/12 15:08:08;;;;;;;24.38;5.22;;;27.30;69.30;;;;;;5077068;28;20017;-68
2022/03/12 15:10:35;;;;;;;16.70;3.40;;;27.20;69.10;;;;;;5070764;28;20099;-70
2022/03/12 15:13:02;;;;;;;23.42;4.35;;;27.20;69.20;;;;;;5076349;28;20024;-69
2022/03/12 15:15:36;;;;;;;29.33;3.53;;;27.10;69.30;;;;;;5072196;28;20013;-70
2022/03/12 15:18:07;;;;;;;21.95;4.05;;;27.10;69.50;;;;;;5073895;28;20134;-71
2022/03/12 15:20:36;;;;;;;31.73;4.80;;;27.00;69.60;;;;;;5074744;28;20112;-67
2022/03/12 15:23:08;;;;;;;46.10;7.43;;;27.00;69.80;;;;;;5073544;28;20398;-68
2022/03/12 15:25:37;;;;;;;27.35;8.30;;;26.90;69.90;;;;;;5076385;28;20417;-68
2022/03/12 15:28:08;;;;;;;64.68;8.35;;;26.90;69.80;;;;;;5064352;28;20066;-70
2022/03/12 15:30:40;;;;;;;38.97;5.22;;;26.80;69.50;;;;;;5059260;28;20127;-69
2022/03/12 15:33:07;;;;;;;14.85;3.30;;;26.80;70.50;;;;;;5060538;28;20055;-72
2022/03/12 15:35:38;;;;;;;15.13;2.70;;;26.70;70.10;;;;;;5061036;28;20029;-73
2022/03/12 15:38:09;;;;;;;7.90;2.53;;;26.60;69.70;;;;;;5060369;28;20025;-70
2022/03/12 15:40:40;;;;;;;7.68;3.10;;;26.50;70.40;;;;;;5058016;28;20025;-77
2022/03/12 15:43:07;;;;;;;4.22;2.20;;;26.50;70.00;;;;;;5057924;28;20009;-69
2022/03/12 15:45:43;;;;;;;8.27;2.35;;;26.50;70.00;;;;;;5064931;28;20023;-71
2022/03/12 15:48:11;;;;;;;14.82;2.45;;;26.40;70.00;;;;;;5057167;28;20025;-69
2022/03/12 15:50:39;;;;;;;14.07;7.55;;;26.40;70.00;;;;;;5067800;28;20056;-70
2022/03/12 15:53:07;;;;;;;11.65;7.03;;;26.30;70.10;;;;;;5059333;28;20083;-70
2022/03/12 15:55:34;;;;;;;13.60;9.10;;;26.30;70.10;;;;;;5061747;28;20044;-69
2022/03/12 15:58:02;;;;;;;4.88;3.50;;;26.30;70.10;;;;;;5056984;28;20027;-70
2022/03/12 16:00:29;;;;;;;7.20;3.13;;;26.30;70.00;;;;;;5059688;28;20013;-76
2022/03/12 16:02:56;;;;;;;7.70;2.78;;;26.20;69.80;;;;;;5066068;28;20035;-69
2022/03/12 16:05:25;;;;;;;4.35;2.42;;;26.20;69.80;;;;;;5058980;28;20025;-69
2022/03/12 16:07:52;;;;;;;3.22;2.50;;;26.20;69.70;;;;;;5063979;28;20016;-70
2022/03/12 16:10:18;;;;;;;3.83;3.15;;;26.20;69.60;;;;;;5056087;28;20040;-73
2022/03/12 16:12:49;;;;;;;4.90;3.50;;;26.20;69.50;;;;;;5064499;28;21351;-70
2022/03/12 16:15:21;;;;;;;6.90;3.92;;;26.10;69.20;;;;;;5054453;28;20498;-70
2022/03/12 16:17:50;;;;;;;8.73;6.00;;;26.10;69.10;;;;;;5061718;28;20024;-71
2022/03/12 16:20:27;;;;;;;14.70;10.23;;;26.00;68.90;;;;;;5062335;28;20053;-72
2022/03/12 16:22:58;;;;;;;28.73;12.48;;;26.00;68.90;;;;;;5057489;28;20024;-75
2022/03/12 16:25:31;;;;;;;28.83;11.23;;;26.00;68.80;;;;;;5059459;28;20055;-71
2022/03/12 16:27:59;;;;;;;23.20;11.05;;;26.00;68.90;;;;;;5060538;28;20034;-74
2022/03/12 16:30:27;;;;;;;10.73;6.78;;;25.90;68.80;;;;;;5063261;28;20348;-69
2022/03/12 16:32:56;;;;;;;23.80;6.53;;;25.90;68.90;;;;;;5054971;28;20032;-73
2022/03/12 16:35:26;;;;;;;20.42;6.43;;;25.90;69.10;;;;;;5058776;28;20529;-71
2022/03/12 16:38:04;;;;;;;33.05;7.07;;;25.90;69.60;;;;;;5059461;28;20021;-76
2022/03/12 16:40:37;;;;;;;57.72;11.32;;;25.80;70.00;;;;;;5058701;28;20024;-77
2022/03/12 16:43:08;;;;;;;74.22;10.90;;;25.80;70.50;;;;;;5059611;28;20106;-78
2022/03/12 16:45:36;;;;;;;11.73;4.30;;;25.80;70.80;;;;;;5061346;28;20025;-73
2022/03/12 16:48:04;;;;;;;13.48;4.82;;;25.80;70.60;;;;;;5059961;28;20017;-78
2022/03/12 16:50:32;;;;;;;9.15;3.72;;;25.80;70.30;;;;;;5057469;28;20032;-73
2022/03/12 16:52:59;;;;;;;26.50;5.90;;;25.70;70.10;;;;;;5059895;28;20315;-76
2022/03/12 16:55:27;;;;;;;13.70;4.80;;;25.70;70.20;;;;;;5056886;28;20530;-77
2022/03/12 16:57:58;;;;;;;8.32;4.78;;;25.70;70.10;;;;;;5056797;28;20021;-70
2022/03/12 17:00:31;;;;;;;7.30;3.33;;;25.70;70.20;;;;;;5056745;28;20028;-69
2022/03/12 17:02:58;;;;;;;17.50;5.53;;;25.70;70.20;;;;;;5056536;28;20502;-76
2022/03/12 17:05:26;;;;;;;36.35;7.65;;;25.60;70.10;;;;;;5059481;28;20029;-74
2022/03/12 17:07:52;;;;;;;75.75;8.40;;;25.60;70.30;;;;;;5061729;28;20024;-73
2022/03/12 17:10:22;;;;;;;27.30;4.30;;;25.60;70.50;;;;;;5055721;28;20491;-79
2022/03/12 17:12:50;;;;;;;25.08;3.75;;;25.60;70.30;;;;;;5059476;28;20089;-73
2022/03/12 17:15:19;;;;;;;13.10;3.45;;;25.60;70.10;;;;;;5057900;28;20179;-73
2022/03/12 17:17:45;;;;;;;10.90;3.13;;;25.50;69.80;;;;;;5061731;28;20094;-72
2022/03/12 17:20:13;;;;;;;40.05;5.40;;;25.60;69.80;;;;;;5057443;28;20017;-73
2022/03/12 17:22:40;;;;;;;20.42;4.40;;;25.50;69.80;;;;;;5054411;28;20082;-75
2022/03/12 17:25:07;;;;;;;12.55;3.08;;;25.50;69.90;;;;;;5056223;28;20044;-75
2022/03/12 17:27:36;;;;;;;35.20;4.15;;;25.50;69.80;;;;;;5057440;28;20032;-72
2022/03/12 17:30:11;;;;;;;17.75;4.43;;;25.50;69.90;;;;;;5058919;28;20024;-75
2022/03/12 17:32:41;;;;;;;;;;;25.50;69.80;;;;;;5064071;28;20574;-75
2022/03/12 17:35:09;;;;;;;29.60;12.75;;;25.50;69.90;;;;;;5061367;28;19908;-71
2022/03/12 17:37:37;;;;;;;24.48;8.05;;;25.50;70.10;;;;;;5061923;28;20021;-71
2022/03/12 17:40:06;;;;;;;15.35;5.18;;;25.40;70.10;;;;;;5061718;28;20032;-70